sensor_id;sensor_type;location;lat;lon;timestamp;P1;durP1;ratioP1;P2;durP2;ratioP2
59189;SDS011;50749;51.636;4.948;2023-05-10T00:00:36;5.28;;;3.42;;
59189;SDS011;50749;51.636;4.948;2023-05-10T00:03:09;5.05;;;2.80;;
59189;SDS011;50749;51.636;4.948;2023-05-10T00:05:35;6.63;;;3.33;;
59189;SDS011;50749;51.636;4.948;2023-05-10T00:08:01;4.03;;;2.80;;
59189;SDS011;50749;51.636;4.948;2023-05-10T00:10:26;4.45;;;2.47;;
59189;SDS011;50749;51.636;4.948;2023-05-10T00:12:52;11.05;;;3.28;;
59189;SDS011;50749;51.636;4.948;2023-05-10T00:15:18;3.70;;;2.55;;
59189;SDS011;50749;51.636;4.948;2023-05-10T00:17:44;6.22;;;3.03;;
59189;SDS011;50749;51.636;4.948;2023-05-10T00:20:10;5.50;;;3.15;;
59189;SDS011;50749;51.636;4.948;2023-05-10T00:22:37;7.95;;;2.80;;
59189;SDS011;50749;51.636;4.948;2023-05-10T00:25:03;5.68;;;2.97;;
59189;SDS011;50749;51.636;4.948;2023-05-10T00:27:29;6.43;;;3.05;;
59189;SDS011;50749;51.636;4.948;2023-05-10T00:29:56;5.10;;;2.60;;
59189;SDS011;50749;51.636;4.948;2023-05-10T00:32:21;8.02;;;2.90;;
59189;SDS011;50749;51.636;4.948;2023-05-10T00:34:47;6.00;;;2.83;;
59189;SDS011;50749;51.636;4.948;2023-05-10T00:37:13;6.13;;;2.83;;
59189;SDS011;50749;51.636;4.948;2023-05-10T00:39:39;5.35;;;2.60;;
59189;SDS011;50749;51.636;4.948;2023-05-10T00:42:05;4.43;;;2.75;;
59189;SDS011;50749;51.636;4.948;2023-05-10T00:44:31;4.72;;;2.88;;
59189;SDS011;50749;51.636;4.948;2023-05-10T00:46:57;8.63;;;2.40;;
59189;SDS011;50749;51.636;4.948;2023-05-10T00:49:24;6.03;;;2.45;;
59189;SDS011;50749;51.636;4.948;2023-05-10T00:51:50;6.85;;;2.97;;
59189;SDS011;50749;51.636;4.948;2023-05-10T00:54:16;5.97;;;2.40;;
59189;SDS011;50749;51.636;4.948;2023-05-10T00:56:43;4.82;;;2.53;;
59189;SDS011;50749;51.636;4.948;2023-05-10T00:59:17;7.03;;;2.72;;
59189;SDS011;50749;51.636;4.948;2023-05-10T01:01:46;5.45;;;2.35;;
59189;SDS011;50749;51.636;4.948;2023-05-10T01:04:13;4.80;;;2.50;;
59189;SDS011;50749;51.636;4.948;2023-05-10T01:06:39;5.70;;;2.78;;
59189;SDS011;50749;51.636;4.948;2023-05-10T01:09:07;5.82;;;2.70;;
59189;SDS011;50749;51.636;4.948;2023-05-10T01:11:36;4.95;;;2.63;;
59189;SDS011;50749;51.636;4.948;2023-05-10T01:14:04;5.90;;;2.35;;
59189;SDS011;50749;51.636;4.948;2023-05-10T01:16:32;6.22;;;2.50;;
59189;SDS011;50749;51.636;4.948;2023-05-10T01:19:01;4.57;;;2.35;;
59189;SDS011;50749;51.636;4.948;2023-05-10T01:21:38;7.45;;;2.50;;
59189;SDS011;50749;51.636;4.948;2023-05-10T01:30:14;3.42;;;2.22;;
59189;SDS011;50749;51.636;4.948;2023-05-10T01:33:01;4.32;;;2.70;;
59189;SDS011;50749;51.636;4.948;2023-05-10T01:35:37;4.78;;;3.25;;
59189;SDS011;50749;51.636;4.948;2023-05-10T01:38:20;6.45;;;3.30;;
59189;SDS011;50749;51.636;4.948;2023-05-10T01:41:03;6.32;;;2.75;;
59189;SDS011;50749;51.636;4.948;2023-05-10T01:43:48;4.78;;;2.45;;
59189;SDS011;50749;51.636;4.948;2023-05-10T01:46:35;6.45;;;3.30;;
59189;SDS011;50749;51.636;4.948;2023-05-10T01:49:03;6.97;;;3.55;;
59189;SDS011;50749;51.636;4.948;2023-05-10T01:51:47;6.68;;;2.90;;
59189;SDS011;50749;51.636;4.948;2023-05-10T01:54:17;5.40;;;3.05;;
59189;SDS011;50749;51.636;4.948;2023-05-10T01:56:50;5.90;;;3.30;;
59189;SDS011;50749;51.636;4.948;2023-05-10T01:59:22;8.00;;;3.67;;
59189;SDS011;50749;51.636;4.948;2023-05-10T02:01:53;6.07;;;3.75;;
59189;SDS011;50749;51.636;4.948;2023-05-10T02:04:22;5.90;;;3.53;;
59189;SDS011;50749;51.636;4.948;2023-05-10T02:06:50;6.38;;;4.00;;
59189;SDS011;50749;51.636;4.948;2023-05-10T02:09:18;6.93;;;3.65;;
59189;SDS011;50749;51.636;4.948;2023-05-10T02:11:45;7.07;;;3.75;;
59189;SDS011;50749;51.636;4.948;2023-05-10T02:14:14;6.38;;;3.65;;
59189;SDS011;50749;51.636;4.948;2023-05-10T02:16:41;8.48;;;3.65;;
59189;SDS011;50749;51.636;4.948;2023-05-10T02:19:08;6.80;;;4.00;;
59189;SDS011;50749;51.636;4.948;2023-05-10T02:21:36;7.00;;;4.03;;
59189;SDS011;50749;51.636;4.948;2023-05-10T02:24:04;6.20;;;3.83;;
59189;SDS011;50749;51.636;4.948;2023-05-10T02:26:32;9.38;;;4.68;;
59189;SDS011;50749;51.636;4.948;2023-05-10T02:29:01;9.00;;;4.43;;
59189;SDS011;50749;51.636;4.948;2023-05-10T02:31:32;6.57;;;4.22;;
59189;SDS011;50749;51.636;4.948;2023-05-10T02:33:59;8.65;;;5.85;;
59189;SDS011;50749;51.636;4.948;2023-05-10T02:36:28;7.07;;;4.40;;
59189;SDS011;50749;51.636;4.948;2023-05-10T02:38:54;5.95;;;4.10;;
59189;SDS011;50749;51.636;4.948;2023-05-10T02:41:21;6.65;;;4.07;;
59189;SDS011;50749;51.636;4.948;2023-05-10T02:43:51;5.82;;;4.00;;
59189;SDS011;50749;51.636;4.948;2023-05-10T02:46:21;6.70;;;4.38;;
59189;SDS011;50749;51.636;4.948;2023-05-10T02:48:47;9.80;;;4.70;;
59189;SDS011;50749;51.636;4.948;2023-05-10T02:51:13;7.30;;;4.57;;
59189;SDS011;50749;51.636;4.948;2023-05-10T02:53:43;8.27;;;4.65;;
59189;SDS011;50749;51.636;4.948;2023-05-10T02:56:16;8.05;;;4.75;;
59189;SDS011;50749;51.636;4.948;2023-05-10T02:58:48;8.57;;;5.43;;
59189;SDS011;50749;51.636;4.948;2023-05-10T03:01:14;6.95;;;4.43;;
59189;SDS011;50749;51.636;4.948;2023-05-10T03:03:40;8.77;;;4.53;;
59189;SDS011;50749;51.636;4.948;2023-05-10T03:06:07;9.68;;;4.72;;
59189;SDS011;50749;51.636;4.948;2023-05-10T03:08:33;8.55;;;4.60;;
59189;SDS011;50749;51.636;4.948;2023-05-10T03:14:21;7.05;;;4.50;;
59189;SDS011;50749;51.636;4.948;2023-05-10T03:16:42;8.68;;;4.57;;
59189;SDS011;50749;51.636;4.948;2023-05-10T03:19:30;7.40;;;5.25;;
59189;SDS011;50749;51.636;4.948;2023-05-10T03:22:06;7.63;;;4.40;;
59189;SDS011;50749;51.636;4.948;2023-05-10T03:24:35;6.75;;;4.53;;
59189;SDS011;50749;51.636;4.948;2023-05-10T03:27:04;7.88;;;4.68;;
59189;SDS011;50749;51.636;4.948;2023-05-10T03:29:31;8.82;;;5.00;;
59189;SDS011;50749;51.636;4.948;2023-05-10T03:32:00;9.65;;;5.18;;
59189;SDS011;50749;51.636;4.948;2023-05-10T03:34:26;11.68;;;5.70;;
59189;SDS011;50749;51.636;4.948;2023-05-10T03:36:56;8.73;;;5.25;;
59189;SDS011;50749;51.636;4.948;2023-05-10T03:39:21;8.35;;;4.93;;
59189;SDS011;50749;51.636;4.948;2023-05-10T03:41:47;12.02;;;5.63;;
59189;SDS011;50749;51.636;4.948;2023-05-10T03:44:13;8.10;;;4.80;;
59189;SDS011;50749;51.636;4.948;2023-05-10T03:46:39;9.30;;;5.63;;
59189;SDS011;50749;51.636;4.948;2023-05-10T03:49:05;11.90;;;5.80;;
59189;SDS011;50749;51.636;4.948;2023-05-10T03:51:31;9.05;;;5.68;;
59189;SDS011;50749;51.636;4.948;2023-05-10T03:53:56;8.55;;;5.68;;
59189;SDS011;50749;51.636;4.948;2023-05-10T03:56:22;11.23;;;6.00;;
59189;SDS011;50749;51.636;4.948;2023-05-10T03:58:48;11.82;;;6.88;;
59189;SDS011;50749;51.636;4.948;2023-05-10T04:01:14;9.02;;;5.72;;
59189;SDS011;50749;51.636;4.948;2023-05-10T04:03:40;9.50;;;6.13;;
59189;SDS011;50749;51.636;4.948;2023-05-10T04:06:06;10.52;;;6.25;;
59189;SDS011;50749;51.636;4.948;2023-05-10T04:08:33;12.68;;;6.57;;
59189;SDS011;50749;51.636;4.948;2023-05-10T04:11:08;10.45;;;6.97;;
59189;SDS011;50749;51.636;4.948;2023-05-10T04:13:35;10.02;;;6.22;;
59189;SDS011;50749;51.636;4.948;2023-05-10T04:16:02;9.95;;;6.50;;
59189;SDS011;50749;51.636;4.948;2023-05-10T04:18:28;9.55;;;6.18;;
59189;SDS011;50749;51.636;4.948;2023-05-10T04:20:54;11.13;;;6.18;;
59189;SDS011;50749;51.636;4.948;2023-05-10T04:23:19;9.75;;;6.30;;
59189;SDS011;50749;51.636;4.948;2023-05-10T04:25:45;7.18;;;5.60;;
59189;SDS011;50749;51.636;4.948;2023-05-10T04:28:11;9.95;;;5.78;;
59189;SDS011;50749;51.636;4.948;2023-05-10T04:30:37;11.18;;;6.18;;
59189;SDS011;50749;51.636;4.948;2023-05-10T04:33:03;7.55;;;5.13;;
59189;SDS011;50749;51.636;4.948;2023-05-10T04:35:29;9.50;;;5.53;;
59189;SDS011;50749;51.636;4.948;2023-05-10T04:37:55;8.73;;;5.55;;
59189;SDS011;50749;51.636;4.948;2023-05-10T04:40:21;8.43;;;5.32;;
59189;SDS011;50749;51.636;4.948;2023-05-10T04:42:47;8.30;;;5.15;;
59189;SDS011;50749;51.636;4.948;2023-05-10T04:45:13;8.38;;;5.20;;
59189;SDS011;50749;51.636;4.948;2023-05-10T04:47:41;8.65;;;5.25;;
59189;SDS011;50749;51.636;4.948;2023-05-10T04:50:07;8.00;;;5.07;;
59189;SDS011;50749;51.636;4.948;2023-05-10T04:52:33;6.88;;;4.90;;
59189;SDS011;50749;51.636;4.948;2023-05-10T04:54:59;8.88;;;4.15;;
59189;SDS011;50749;51.636;4.948;2023-05-10T04:57:25;9.40;;;4.50;;
59189;SDS011;50749;51.636;4.948;2023-05-10T04:59:51;8.40;;;4.82;;
59189;SDS011;50749;51.636;4.948;2023-05-10T05:02:17;6.38;;;4.00;;
59189;SDS011;50749;51.636;4.948;2023-05-10T05:04:43;8.75;;;4.63;;
59189;SDS011;50749;51.636;4.948;2023-05-10T05:07:08;7.40;;;4.35;;
59189;SDS011;50749;51.636;4.948;2023-05-10T05:09:34;6.60;;;4.32;;
59189;SDS011;50749;51.636;4.948;2023-05-10T05:12:00;9.25;;;4.35;;
59189;SDS011;50749;51.636;4.948;2023-05-10T05:14:26;7.38;;;4.05;;
59189;SDS011;50749;51.636;4.948;2023-05-10T05:16:52;8.07;;;4.32;;
59189;SDS011;50749;51.636;4.948;2023-05-10T05:19:18;7.88;;;4.35;;
59189;SDS011;50749;51.636;4.948;2023-05-10T05:21:44;8.13;;;4.18;;
59189;SDS011;50749;51.636;4.948;2023-05-10T05:24:10;6.57;;;3.90;;
59189;SDS011;50749;51.636;4.948;2023-05-10T05:26:37;7.07;;;4.03;;
59189;SDS011;50749;51.636;4.948;2023-05-10T05:29:04;7.82;;;4.00;;
59189;SDS011;50749;51.636;4.948;2023-05-10T05:31:29;9.93;;;4.32;;
59189;SDS011;50749;51.636;4.948;2023-05-10T05:33:56;9.20;;;4.25;;
59189;SDS011;50749;51.636;4.948;2023-05-10T05:36:21;6.72;;;3.90;;
59189;SDS011;50749;51.636;4.948;2023-05-10T05:38:47;7.80;;;4.40;;
59189;SDS011;50749;51.636;4.948;2023-05-10T05:41:13;8.50;;;4.13;;
59189;SDS011;50749;51.636;4.948;2023-05-10T05:43:39;6.30;;;4.20;;
59189;SDS011;50749;51.636;4.948;2023-05-10T05:46:05;5.85;;;3.55;;
59189;SDS011;50749;51.636;4.948;2023-05-10T05:48:31;15.93;;;4.65;;
59189;SDS011;50749;51.636;4.948;2023-05-10T05:50:57;6.57;;;3.72;;
59189;SDS011;50749;51.636;4.948;2023-05-10T05:53:23;11.75;;;5.85;;
59189;SDS011;50749;51.636;4.948;2023-05-10T05:55:56;10.13;;;5.68;;
59189;SDS011;50749;51.636;4.948;2023-05-10T05:58:23;7.72;;;4.13;;
59189;SDS011;50749;51.636;4.948;2023-05-10T06:00:50;8.75;;;5.05;;
59189;SDS011;50749;51.636;4.948;2023-05-10T06:03:17;8.93;;;5.47;;
59189;SDS011;50749;51.636;4.948;2023-05-10T06:05:43;9.57;;;4.50;;
59189;SDS011;50749;51.636;4.948;2023-05-10T06:08:09;9.55;;;5.32;;
59189;SDS011;50749;51.636;4.948;2023-05-10T06:10:36;11.18;;;4.70;;
59189;SDS011;50749;51.636;4.948;2023-05-10T06:13:01;9.40;;;4.95;;
59189;SDS011;50749;51.636;4.948;2023-05-10T06:15:28;7.75;;;5.22;;
59189;SDS011;50749;51.636;4.948;2023-05-10T06:17:53;11.13;;;5.28;;
59189;SDS011;50749;51.636;4.948;2023-05-10T06:20:19;10.38;;;4.97;;
59189;SDS011;50749;51.636;4.948;2023-05-10T06:22:45;9.98;;;4.97;;
59189;SDS011;50749;51.636;4.948;2023-05-10T06:25:11;12.07;;;5.18;;
59189;SDS011;50749;51.636;4.948;2023-05-10T06:27:37;8.65;;;4.55;;
59189;SDS011;50749;51.636;4.948;2023-05-10T06:30:03;8.45;;;4.30;;
59189;SDS011;50749;51.636;4.948;2023-05-10T06:32:30;10.63;;;4.30;;
59189;SDS011;50749;51.636;4.948;2023-05-10T06:34:56;5.82;;;4.10;;
59189;SDS011;50749;51.636;4.948;2023-05-10T06:37:21;8.98;;;4.10;;
59189;SDS011;50749;51.636;4.948;2023-05-10T06:39:47;9.07;;;4.28;;
59189;SDS011;50749;51.636;4.948;2023-05-10T06:42:13;13.30;;;3.53;;
59189;SDS011;50749;51.636;4.948;2023-05-10T06:44:39;9.77;;;3.70;;
59189;SDS011;50749;51.636;4.948;2023-05-10T06:47:05;9.15;;;3.85;;
59189;SDS011;50749;51.636;4.948;2023-05-10T06:49:31;8.90;;;3.60;;
59189;SDS011;50749;51.636;4.948;2023-05-10T06:51:56;6.75;;;3.80;;
59189;SDS011;50749;51.636;4.948;2023-05-10T06:54:23;8.82;;;3.95;;
59189;SDS011;50749;51.636;4.948;2023-05-10T06:56:48;8.88;;;3.88;;
59189;SDS011;50749;51.636;4.948;2023-05-10T06:59:14;7.63;;;3.90;;
59189;SDS011;50749;51.636;4.948;2023-05-10T07:01:42;10.40;;;4.25;;
59189;SDS011;50749;51.636;4.948;2023-05-10T07:04:08;18.52;;;4.20;;
59189;SDS011;50749;51.636;4.948;2023-05-10T07:06:34;7.07;;;3.45;;
59189;SDS011;50749;51.636;4.948;2023-05-10T07:09:00;5.45;;;3.05;;
59189;SDS011;50749;51.636;4.948;2023-05-10T07:11:26;11.07;;;3.78;;
59189;SDS011;50749;51.636;4.948;2023-05-10T07:13:54;6.25;;;2.80;;
59189;SDS011;50749;51.636;4.948;2023-05-10T07:16:20;9.25;;;3.17;;
59189;SDS011;50749;51.636;4.948;2023-05-10T07:18:47;6.18;;;2.80;;
59189;SDS011;50749;51.636;4.948;2023-05-10T07:21:12;9.55;;;2.33;;
59189;SDS011;50749;51.636;4.948;2023-05-10T07:23:38;6.32;;;2.80;;
59189;SDS011;50749;51.636;4.948;2023-05-10T07:26:04;6.47;;;2.25;;
59189;SDS011;50749;51.636;4.948;2023-05-10T07:28:30;4.70;;;2.20;;
59189;SDS011;50749;51.636;4.948;2023-05-10T07:30:56;7.78;;;2.20;;
59189;SDS011;50749;51.636;4.948;2023-05-10T07:33:22;7.18;;;1.95;;
59189;SDS011;50749;51.636;4.948;2023-05-10T07:35:47;5.28;;;2.00;;
59189;SDS011;50749;51.636;4.948;2023-05-10T07:38:13;7.43;;;2.13;;
59189;SDS011;50749;51.636;4.948;2023-05-10T07:40:39;5.43;;;1.83;;
59189;SDS011;50749;51.636;4.948;2023-05-10T07:43:05;7.03;;;1.90;;
59189;SDS011;50749;51.636;4.948;2023-05-10T07:45:31;5.45;;;2.13;;
59189;SDS011;50749;51.636;4.948;2023-05-10T07:47:58;9.65;;;2.58;;
59189;SDS011;50749;51.636;4.948;2023-05-10T07:50:24;3.67;;;2.03;;
59189;SDS011;50749;51.636;4.948;2023-05-10T07:52:50;4.35;;;1.77;;
59189;SDS011;50749;51.636;4.948;2023-05-10T07:55:16;3.22;;;1.80;;
59189;SDS011;50749;51.636;4.948;2023-05-10T07:57:44;6.07;;;2.08;;
59189;SDS011;50749;51.636;4.948;2023-05-10T08:00:12;4.57;;;2.08;;
59189;SDS011;50749;51.636;4.948;2023-05-10T08:02:39;5.93;;;1.75;;
59189;SDS011;50749;51.636;4.948;2023-05-10T08:05:05;8.60;;;1.73;;
59189;SDS011;50749;51.636;4.948;2023-05-10T08:07:31;4.85;;;1.80;;
59189;SDS011;50749;51.636;4.948;2023-05-10T08:09:57;4.28;;;1.75;;
59189;SDS011;50749;51.636;4.948;2023-05-10T08:12:23;4.32;;;1.63;;
59189;SDS011;50749;51.636;4.948;2023-05-10T08:14:49;6.15;;;2.33;;
59189;SDS011;50749;51.636;4.948;2023-05-10T08:17:15;5.13;;;1.70;;
59189;SDS011;50749;51.636;4.948;2023-05-10T08:19:40;7.82;;;2.10;;
59189;SDS011;50749;51.636;4.948;2023-05-10T08:22:06;5.53;;;1.75;;
59189;SDS011;50749;51.636;4.948;2023-05-10T08:24:32;5.75;;;2.00;;
59189;SDS011;50749;51.636;4.948;2023-05-10T08:27:00;5.50;;;1.85;;
59189;SDS011;50749;51.636;4.948;2023-05-10T08:29:26;4.57;;;1.83;;
59189;SDS011;50749;51.636;4.948;2023-05-10T08:31:51;3.90;;;2.00;;
59189;SDS011;50749;51.636;4.948;2023-05-10T08:34:17;6.00;;;1.92;;
59189;SDS011;50749;51.636;4.948;2023-05-10T08:36:43;4.07;;;1.70;;
59189;SDS011;50749;51.636;4.948;2023-05-10T08:39:09;7.82;;;1.92;;
59189;SDS011;50749;51.636;4.948;2023-05-10T08:41:35;5.15;;;1.85;;
59189;SDS011;50749;51.636;4.948;2023-05-10T08:44:03;5.25;;;2.40;;
59189;SDS011;50749;51.636;4.948;2023-05-10T08:46:33;5.72;;;2.20;;
59189;SDS011;50749;51.636;4.948;2023-05-10T08:49:04;7.18;;;2.60;;
59189;SDS011;50749;51.636;4.948;2023-05-10T08:51:33;5.00;;;2.40;;
59189;SDS011;50749;51.636;4.948;2023-05-10T08:54:02;4.28;;;2.50;;
59189;SDS011;50749;51.636;4.948;2023-05-10T08:56:29;5.78;;;2.20;;
59189;SDS011;50749;51.636;4.948;2023-05-10T08:58:55;6.00;;;2.00;;
59189;SDS011;50749;51.636;4.948;2023-05-10T09:01:22;5.63;;;1.98;;
59189;SDS011;50749;51.636;4.948;2023-05-10T09:03:49;3.53;;;1.70;;
59189;SDS011;50749;51.636;4.948;2023-05-10T09:06:16;5.55;;;2.08;;
59189;SDS011;50749;51.636;4.948;2023-05-10T09:08:42;5.40;;;1.88;;
59189;SDS011;50749;51.636;4.948;2023-05-10T09:11:09;3.35;;;1.45;;
59189;SDS011;50749;51.636;4.948;2023-05-10T09:13:35;2.15;;;1.40;;
59189;SDS011;50749;51.636;4.948;2023-05-10T09:16:02;4.63;;;2.08;;
59189;SDS011;50749;51.636;4.948;2023-05-10T09:18:28;7.93;;;1.42;;
59189;SDS011;50749;51.636;4.948;2023-05-10T09:20:55;3.67;;;1.95;;
59189;SDS011;50749;51.636;4.948;2023-05-10T09:23:20;5.03;;;1.80;;
59189;SDS011;50749;51.636;4.948;2023-05-10T09:25:46;3.67;;;1.30;;
59189;SDS011;50749;51.636;4.948;2023-05-10T09:28:12;6.43;;;1.67;;
59189;SDS011;50749;51.636;4.948;2023-05-10T09:30:38;5.80;;;1.70;;
59189;SDS011;50749;51.636;4.948;2023-05-10T09:33:04;4.18;;;1.45;;
59189;SDS011;50749;51.636;4.948;2023-05-10T09:35:31;5.50;;;1.75;;
59189;SDS011;50749;51.636;4.948;2023-05-10T09:38:03;6.43;;;1.55;;
59189;SDS011;50749;51.636;4.948;2023-05-10T09:40:30;3.53;;;1.42;;
59189;SDS011;50749;51.636;4.948;2023-05-10T09:42:57;2.35;;;1.30;;
59189;SDS011;50749;51.636;4.948;2023-05-10T09:45:26;5.35;;;1.42;;
59189;SDS011;50749;51.636;4.948;2023-05-10T09:47:57;3.75;;;2.13;;
59189;SDS011;50749;51.636;4.948;2023-05-10T09:50:25;3.67;;;1.50;;
59189;SDS011;50749;51.636;4.948;2023-05-10T09:52:52;6.72;;;2.92;;
59189;SDS011;50749;51.636;4.948;2023-05-10T09:55:19;4.40;;;1.52;;
59189;SDS011;50749;51.636;4.948;2023-05-10T09:57:47;8.75;;;1.55;;
59189;SDS011;50749;51.636;4.948;2023-05-10T10:00:17;3.58;;;1.15;;
59189;SDS011;50749;51.636;4.948;2023-05-10T10:02:45;2.20;;;1.20;;
59189;SDS011;50749;51.636;4.948;2023-05-10T10:05:12;4.97;;;1.67;;
59189;SDS011;50749;51.636;4.948;2023-05-10T10:07:39;5.20;;;1.33;;
59189;SDS011;50749;51.636;4.948;2023-05-10T10:10:05;3.40;;;1.45;;
59189;SDS011;50749;51.636;4.948;2023-05-10T10:12:37;2.67;;;1.13;;
59189;SDS011;50749;51.636;4.948;2023-05-10T10:15:03;3.97;;;1.33;;
59189;SDS011;50749;51.636;4.948;2023-05-10T10:17:31;2.08;;;1.15;;
59189;SDS011;50749;51.636;4.948;2023-05-10T10:19:57;4.55;;;1.00;;
59189;SDS011;50749;51.636;4.948;2023-05-10T10:22:24;4.25;;;1.38;;
59189;SDS011;50749;51.636;4.948;2023-05-10T10:24:50;5.25;;;1.38;;
59189;SDS011;50749;51.636;4.948;2023-05-10T10:27:21;2.50;;;1.40;;
59189;SDS011;50749;51.636;4.948;2023-05-10T10:35:31;3.55;;;1.42;;
59189;SDS011;50749;51.636;4.948;2023-05-10T10:37:58;4.13;;;1.55;;
59189;SDS011;50749;51.636;4.948;2023-05-10T10:40:30;3.47;;;2.00;;
59189;SDS011;50749;51.636;4.948;2023-05-10T10:42:59;4.50;;;1.52;;
59189;SDS011;50749;51.636;4.948;2023-05-10T10:48:49;2.85;;;1.50;;
59189;SDS011;50749;51.636;4.948;2023-05-10T10:51:36;2.40;;;1.30;;
59189;SDS011;50749;51.636;4.948;2023-05-10T10:54:09;3.58;;;1.52;;
59189;SDS011;50749;51.636;4.948;2023-05-10T10:56:35;7.05;;;2.30;;
59189;SDS011;50749;51.636;4.948;2023-05-10T10:59:01;2.20;;;1.27;;
59189;SDS011;50749;51.636;4.948;2023-05-10T11:01:32;4.43;;;2.08;;
59189;SDS011;50749;51.636;4.948;2023-05-10T11:06:32;5.88;;;2.38;;
59189;SDS011;50749;51.636;4.948;2023-05-10T11:09:00;6.47;;;2.57;;
59189;SDS011;50749;51.636;4.948;2023-05-10T11:11:31;8.65;;;3.47;;
59189;SDS011;50749;51.636;4.948;2023-05-10T11:14:02;9.80;;;3.05;;
59189;SDS011;50749;51.636;4.948;2023-05-10T11:16:29;10.18;;;2.55;;
59189;SDS011;50749;51.636;4.948;2023-05-10T11:19:07;5.45;;;2.35;;
59189;SDS011;50749;51.636;4.948;2023-05-10T11:21:50;7.70;;;2.75;;
59189;SDS011;50749;51.636;4.948;2023-05-10T11:24:36;5.00;;;2.25;;
59189;SDS011;50749;51.636;4.948;2023-05-10T11:27:02;9.15;;;2.30;;
59189;SDS011;50749;51.636;4.948;2023-05-10T11:29:28;5.22;;;2.03;;
59189;SDS011;50749;51.636;4.948;2023-05-10T11:31:56;7.63;;;2.50;;
59189;SDS011;50749;51.636;4.948;2023-05-10T11:34:24;13.60;;;2.17;;
59189;SDS011;50749;51.636;4.948;2023-05-10T11:36:52;5.43;;;2.35;;
59189;SDS011;50749;51.636;4.948;2023-05-10T11:39:21;7.82;;;2.38;;
59189;SDS011;50749;51.636;4.948;2023-05-10T11:41:50;4.03;;;1.83;;
59189;SDS011;50749;51.636;4.948;2023-05-10T11:44:16;4.25;;;1.65;;
59189;SDS011;50749;51.636;4.948;2023-05-10T11:46:42;5.75;;;2.05;;
59189;SDS011;50749;51.636;4.948;2023-05-10T11:49:11;9.50;;;2.20;;
59189;SDS011;50749;51.636;4.948;2023-05-10T11:51:38;6.47;;;1.70;;
59189;SDS011;50749;51.636;4.948;2023-05-10T11:54:05;3.25;;;1.83;;
59189;SDS011;50749;51.636;4.948;2023-05-10T11:56:34;3.42;;;1.92;;
59189;SDS011;50749;51.636;4.948;2023-05-10T11:59:00;6.55;;;1.95;;
59189;SDS011;50749;51.636;4.948;2023-05-10T12:01:28;6.38;;;2.03;;
59189;SDS011;50749;51.636;4.948;2023-05-10T12:03:55;4.45;;;1.70;;
59189;SDS011;50749;51.636;4.948;2023-05-10T12:06:26;3.22;;;1.63;;
59189;SDS011;50749;51.636;4.948;2023-05-10T12:08:54;5.13;;;1.73;;
59189;SDS011;50749;51.636;4.948;2023-05-10T12:11:20;8.75;;;2.53;;
59189;SDS011;50749;51.636;4.948;2023-05-10T12:13:50;2.35;;;1.48;;
59189;SDS011;50749;51.636;4.948;2023-05-10T12:16:17;3.28;;;1.55;;
59189;SDS011;50749;51.636;4.948;2023-05-10T12:18:48;6.22;;;1.90;;
59189;SDS011;50749;51.636;4.948;2023-05-10T12:21:19;6.78;;;2.00;;
59189;SDS011;50749;51.636;4.948;2023-05-10T12:23:46;4.25;;;1.73;;
59189;SDS011;50749;51.636;4.948;2023-05-10T12:26:13;4.07;;;1.63;;
59189;SDS011;50749;51.636;4.948;2023-05-10T12:28:39;4.50;;;1.88;;
59189;SDS011;50749;51.636;4.948;2023-05-10T12:31:06;2.70;;;1.38;;
59189;SDS011;50749;51.636;4.948;2023-05-10T12:33:38;3.83;;;1.58;;
59189;SDS011;50749;51.636;4.948;2023-05-10T12:36:09;3.55;;;1.40;;
59189;SDS011;50749;51.636;4.948;2023-05-10T12:38:37;4.85;;;1.63;;
59189;SDS011;50749;51.636;4.948;2023-05-10T12:41:17;2.78;;;1.45;;
59189;SDS011;50749;51.636;4.948;2023-05-10T12:43:44;4.03;;;1.25;;
59189;SDS011;50749;51.636;4.948;2023-05-10T12:46:11;4.07;;;1.40;;
59189;SDS011;50749;51.636;4.948;2023-05-10T12:48:39;3.05;;;1.30;;
59189;SDS011;50749;51.636;4.948;2023-05-10T12:51:06;2.40;;;1.00;;
59189;SDS011;50749;51.636;4.948;2023-05-10T12:53:35;4.78;;;1.30;;
59189;SDS011;50749;51.636;4.948;2023-05-10T12:56:01;2.58;;;1.10;;
59189;SDS011;50749;51.636;4.948;2023-05-10T12:58:27;5.72;;;1.17;;
59189;SDS011;50749;51.636;4.948;2023-05-10T13:00:53;1.50;;;0.82;;
59189;SDS011;50749;51.636;4.948;2023-05-10T13:03:19;2.92;;;0.80;;
59189;SDS011;50749;51.636;4.948;2023-05-10T13:05:45;2.30;;;1.00;;
59189;SDS011;50749;51.636;4.948;2023-05-10T13:08:11;3.45;;;0.98;;
59189;SDS011;50749;51.636;4.948;2023-05-10T13:10:37;6.25;;;1.70;;
59189;SDS011;50749;51.636;4.948;2023-05-10T13:13:03;2.28;;;0.98;;
59189;SDS011;50749;51.636;4.948;2023-05-10T13:15:29;1.58;;;0.95;;
59189;SDS011;50749;51.636;4.948;2023-05-10T13:17:55;3.13;;;1.02;;
59189;SDS011;50749;51.636;4.948;2023-05-10T13:20:21;5.22;;;0.90;;
59189;SDS011;50749;51.636;4.948;2023-05-10T13:22:47;5.53;;;1.10;;
59189;SDS011;50749;51.636;4.948;2023-05-10T13:25:13;3.47;;;1.00;;
59189;SDS011;50749;51.636;4.948;2023-05-10T13:27:39;4.88;;;0.98;;
59189;SDS011;50749;51.636;4.948;2023-05-10T13:30:06;3.38;;;0.90;;
59189;SDS011;50749;51.636;4.948;2023-05-10T13:32:37;3.10;;;0.73;;
59189;SDS011;50749;51.636;4.948;2023-05-10T13:35:03;2.15;;;0.90;;
59189;SDS011;50749;51.636;4.948;2023-05-10T13:37:30;1.77;;;0.85;;
59189;SDS011;50749;51.636;4.948;2023-05-10T13:39:56;2.30;;;1.00;;
59189;SDS011;50749;51.636;4.948;2023-05-10T13:42:22;2.97;;;0.85;;
59189;SDS011;50749;51.636;4.948;2023-05-10T13:44:51;2.08;;;0.90;;
59189;SDS011;50749;51.636;4.948;2023-05-10T13:47:17;3.47;;;1.45;;
59189;SDS011;50749;51.636;4.948;2023-05-10T13:49:43;1.02;;;0.68;;
59189;SDS011;50749;51.636;4.948;2023-05-10T13:52:09;4.43;;;1.08;;
59189;SDS011;50749;51.636;4.948;2023-05-10T13:54:35;4.57;;;0.90;;
59189;SDS011;50749;51.636;4.948;2023-05-10T13:57:02;1.05;;;0.70;;
59189;SDS011;50749;51.636;4.948;2023-05-10T13:59:28;2.53;;;1.00;;
59189;SDS011;50749;51.636;4.948;2023-05-10T14:01:57;2.10;;;0.82;;
59189;SDS011;50749;51.636;4.948;2023-05-10T14:04:23;1.60;;;0.73;;
59189;SDS011;50749;51.636;4.948;2023-05-10T14:06:49;3.03;;;0.80;;
59189;SDS011;50749;51.636;4.948;2023-05-10T14:09:15;1.50;;;0.88;;
59189;SDS011;50749;51.636;4.948;2023-05-10T14:11:42;2.05;;;0.80;;
59189;SDS011;50749;51.636;4.948;2023-05-10T14:14:08;3.90;;;0.70;;
59189;SDS011;50749;51.636;4.948;2023-05-10T14:16:35;4.63;;;0.90;;
59189;SDS011;50749;51.636;4.948;2023-05-10T14:19:00;2.67;;;0.80;;
59189;SDS011;50749;51.636;4.948;2023-05-10T14:21:27;10.65;;;0.98;;
59189;SDS011;50749;51.636;4.948;2023-05-10T14:23:55;6.07;;;1.15;;
59189;SDS011;50749;51.636;4.948;2023-05-10T14:26:21;3.60;;;0.90;;
59189;SDS011;50749;51.636;4.948;2023-05-10T14:28:47;9.15;;;1.60;;
59189;SDS011;50749;51.636;4.948;2023-05-10T14:31:13;4.68;;;0.63;;
59189;SDS011;50749;51.636;4.948;2023-05-10T14:33:39;9.20;;;0.80;;
59189;SDS011;50749;51.636;4.948;2023-05-10T14:36:06;4.32;;;0.85;;
59189;SDS011;50749;51.636;4.948;2023-05-10T14:38:32;8.02;;;0.80;;
59189;SDS011;50749;51.636;4.948;2023-05-10T14:40:58;5.95;;;0.82;;
59189;SDS011;50749;51.636;4.948;2023-05-10T14:43:24;3.67;;;0.80;;
59189;SDS011;50749;51.636;4.948;2023-05-10T14:45:50;4.63;;;1.00;;
59189;SDS011;50749;51.636;4.948;2023-05-10T14:48:15;3.17;;;0.80;;
59189;SDS011;50749;51.636;4.948;2023-05-10T14:50:43;2.65;;;0.90;;
59189;SDS011;50749;51.636;4.948;2023-05-10T14:53:10;5.30;;;0.65;;
59189;SDS011;50749;51.636;4.948;2023-05-10T14:55:36;2.58;;;0.80;;
59189;SDS011;50749;51.636;4.948;2023-05-10T14:58:03;3.95;;;0.82;;
59189;SDS011;50749;51.636;4.948;2023-05-10T15:00:29;2.97;;;0.82;;
59189;SDS011;50749;51.636;4.948;2023-05-10T15:02:56;2.35;;;0.80;;
59189;SDS011;50749;51.636;4.948;2023-05-10T15:05:22;3.38;;;0.60;;
59189;SDS011;50749;51.636;4.948;2023-05-10T15:07:48;2.63;;;0.82;;